Latest Weather Observations for Banana Bank

IDQ60801

Issued at 3:35 am EST Saturday 23 August 2014 (issued every 30 minutes, with the page automatically refreshed every 10 minutes)

About weather observations | Map of weather stations | Latest weather observations for QLD | Other Formats
Station Details ID: 040925 Name: BANANA BANK NORTH BEACON Lat: -27.53 Lon: 153.33 Height: 7.0 m
Data from the previous 72 hours. | See also: Recent months for locations in Queensland
Date/Time
EST
Temp
°C
App
Temp
°C
Dew
Point
Rel
Hum
%
Delta-T
°C
Wind Press
QNH
hPa
Press
MSL
hPa
Rain
since 9 am
mm
Dir
 
Spd
km/h
Gust
km/h
Spd
kts
Gust
kts
23/03:30am - - - - - S 32 37 17 20 - - -
23/03:00am - - - - - S 28 33 15 18 - - -
23/02:30am - - - - - S 35 43 19 23 - - -
23/02:00am - - - - - S 33 41 18 22 - - -
23/01:44am - - - - - SSE 35 43 19 23 - - -
23/01:30am - - - - - S 19 24 10 13 - - -
23/01:00am - - - - - SSW 22 26 12 14 - - -
23/12:30am - - - - - S 30 39 16 21 - - -
23/12:00am - - - - - S 30 35 16 19 - - -
 
Date/Time
EST
Temp
°C
App
Temp
°C
Dew
Point
Rel
Hum
%
Delta-T
°C
Wind Press
QNH
hPa
Press
MSL
hPa
Rain
since 9 am
mm
Dir
 
Spd
km/h
Gust
km/h
Spd
kts
Gust
kts
22/11:30pm - - - - - S 26 33 14 18 - - -
22/11:00pm - - - - - S 26 32 14 17 - - -
22/10:30pm - - - - - S 26 32 14 17 - - -
22/10:00pm - - - - - S 20 26 11 14 - - -
22/09:30pm - - - - - S 24 32 13 17 - - -
22/09:00pm - - - - - S 24 30 13 16 - - -
22/08:30pm - - - - - S 22 30 12 16 - - -
22/08:00pm - - - - - S 26 33 14 18 - - -
22/07:30pm - - - - - S 30 39 16 21 - - -
22/07:00pm - - - - - S 30 35 16 19 - - -
22/06:30pm - - - - - S 24 32 13 17 - - -
22/06:00pm - - - - - S 28 35 15 19 - - -
22/05:30pm - - - - - S 26 39 14 21 - - -
22/05:00pm - - - - - S 22 30 12 16 - - -
22/04:30pm - - - - - S 26 32 14 17 - - -
22/04:00pm - - - - - S 30 39 16 21 - - -
22/03:30pm - - - - - S 30 37 16 20 - - -
22/03:00pm - - - - - S 32 35 17 19 - - -
22/02:30pm - - - - - S 30 39 16 21 - - -
22/02:00pm - - - - - S 28 37 15 20 - - -
22/01:30pm - - - - - S 22 30 12 16 - - -
22/01:00pm - - - - - S 22 28 12 15 - - -
22/12:30pm - - - - - SSW 24 26 13 14 - - -
22/12:00pm - - - - - SSE 22 26 12 14 - - -
22/11:30am - - - - - SSE 24 32 13 17 - - -
22/11:00am - - - - - ESE 20 24 11 13 - - -
22/10:30am - - - - - ESE 26 30 14 16 - - -
22/10:00am - - - - - SSE 24 30 13 16 - - -
22/09:30am - - - - - S 19 24 10 13 - - -
22/09:00am - - - - - S 22 26 12 14 - - -
22/08:30am - - - - - S 22 32 12 17 - - -
22/08:00am - - - - - S 24 32 13 17 - - -
22/07:30am - - - - - S 26 32 14 17 - - -
22/07:00am - - - - - S 19 26 10 14 - - -
22/06:30am - - - - - S 22 26 12 14 - - -
22/06:00am - - - - - SSE 28 33 15 18 - - -
22/05:30am - - - - - SSE 26 32 14 17 - - -
22/05:00am - - - - - S 28 33 15 18 - - -
22/04:30am - - - - - S 30 35 16 19 - - -
22/04:00am - - - - - SSE 26 32 14 17 - - -
22/03:30am - - - - - S 26 30 14 16 - - -
22/03:00am - - - - - S 28 33 15 18 - - -
22/02:30am - - - - - S 28 35 15 19 - - -
22/02:00am - - - - - S 22 26 12 14 - - -
22/01:30am - - - - - SSW 26 32 14 17 - - -
22/01:00am - - - - - S 26 33 14 18 - - -
22/12:30am - - - - - S 28 33 15 18 - - -
22/12:00am - - - - - S 24 30 13 16 - - -
 
Date/Time
EST
Temp
°C
App
Temp
°C
Dew
Point
Rel
Hum
%
Delta-T
°C
Wind Press
QNH
hPa
Press
MSL
hPa
Rain
since 9 am
mm
Dir
 
Spd
km/h
Gust
km/h
Spd
kts
Gust
kts
21/11:30pm - - - - - S 20 26 11 14 - - -
21/11:00pm - - - - - S 22 28 12 15 - - -
21/10:30pm - - - - - S 24 30 13 16 - - -
21/10:00pm - - - - - S 22 28 12 15 - - -
21/09:30pm - - - - - SSE 32 39 17 21 - - -
21/09:00pm - - - - - SE 33 43 18 23 - - -
21/08:30pm - - - - - SE 37 46 20 25 - - -
21/08:00pm - - - - - SE 39 44 21 24 - - -
21/07:30pm - - - - - SSE 33 43 18 23 - - -
21/07:03pm - - - - - SSE 33 52 18 28 - - -
21/07:00pm - - - - - SSE 33 46 18 25 - - -
21/06:30pm - - - - - SSE 35 43 19 23 - - -
21/06:00pm - - - - - SSE 28 35 15 19 - - -
21/05:30pm - - - - - SSE 39 46 21 25 - - -
21/05:00pm - - - - - SSE 41 54 22 29 - - -
21/04:30pm - - - - - SSE 43 54 23 29 - - -
21/04:00pm - - - - - SSE 41 48 22 26 - - -
21/03:30pm - - - - - SSE 43 59 23 32 - - -
21/03:00pm - - - - - SSE 39 48 21 26 - - -
21/02:30pm - - - - - SSE 43 50 23 27 - - -
21/02:00pm - - - - - SSE 39 46 21 25 - - -
21/01:30pm - - - - - SSE 43 52 23 28 - - -
21/01:00pm - - - - - SSE 41 50 22 27 - - -
21/12:30pm - - - - - S 43 54 23 29 - - -
21/12:00pm - - - - - SSE 48 57 26 31 - - -
21/11:30am - - - - - S 37 46 20 25 - - -
21/11:00am - - - - - S 41 52 22 28 - - -
21/10:30am - - - - - S 41 54 22 29 - - -
21/10:00am - - - - - S 43 56 23 30 - - -
21/09:30am - - - - - S 43 54 23 29 - - -
21/09:00am - - - - - S 43 56 23 30 - - -
21/08:30am - - - - - S 37 46 20 25 - - -
21/08:00am - - - - - S 22 32 12 17 - - -
21/07:30am - - - - - S 22 24 12 13 - - -
21/07:00am - - - - - S 20 24 11 13 - - -
21/06:30am - - - - - SSW 17 19 9 10 - - -
21/06:00am - - - - - SSW 17 20 9 11 - - -
21/05:30am - - - - - SW 15 17 8 9 - - -
21/05:00am - - - - - SSW 19 22 10 12 - - -
21/04:30am - - - - - SSW 17 19 9 10 - - -
21/04:00am - - - - - S 17 20 9 11 - - -
21/03:30am - - - - - S 17 20 9 11 - - -
21/03:00am - - - - - SSW 17 20 9 11 - - -
21/02:30am - - - - - SSW 19 20 10 11 - - -
21/02:00am - - - - - S 17 20 9 11 - - -
21/01:30am - - - - - S 19 24 10 13 - - -
21/01:00am - - - - - S 24 30 13 16 - - -
21/12:30am - - - - - S 22 28 12 15 - - -
21/12:00am - - - - - S 20 24 11 13 - - -
 
Date/Time
EST
Temp
°C
App
Temp
°C
Dew
Point
Rel
Hum
%
Delta-T
°C
Wind Press
QNH
hPa
Press
MSL
hPa
Rain
since 9 am
mm
Dir
 
Spd
km/h
Gust
km/h
Spd
kts
Gust
kts
20/11:30pm - - - - - S 22 26 12 14 - - -
20/11:00pm - - - - - S 22 28 12 15 - - -
20/10:30pm - - - - - S 24 30 13 16 - - -
20/10:00pm - - - - - S 26 33 14 18 - - -
20/09:30pm - - - - - S 24 32 13 17 - - -
20/09:00pm - - - - - S 26 32 14 17 - - -
20/08:30pm - - - - - SSE 30 37 16 20 - - -
20/08:00pm - - - - - SSE 26 32 14 17 - - -
20/07:30pm - - - - - SSE 30 37 16 20 - - -
20/07:00pm - - - - - SSE 32 41 17 22 - - -
20/06:30pm - - - - - SSE 30 37 16 20 - - -
20/06:00pm - - - - - SSE 33 39 18 21 - - -
20/05:30pm - - - - - SSE 30 41 16 22 - - -
20/05:00pm - - - - - SSE 33 43 18 23 - - -
20/04:30pm - - - - - SE 33 41 18 22 - - -
20/04:00pm - - - - - SE 37 43 20 23 - - -
20/03:30pm - - - - - SE 30 37 16 20 - - -
20/03:00pm - - - - - SE 32 37 17 20 - - -
20/02:30pm - - - - - SE 26 32 14 17 - - -
20/02:00pm - - - - - SE 24 30 13 16 - - -
20/01:30pm - - - - - SE 24 30 13 16 - - -
20/01:00pm - - - - - SE 24 28 13 15 - - -
20/12:30pm - - - - - SSE 26 32 14 17 - - -
20/12:00pm - - - - - SSE 24 30 13 16 - - -
20/11:30am - - - - - SSE 28 35 15 19 - - -
20/11:00am - - - - - S 19 26 10 14 - - -
20/10:30am - - - - - S 15 19 8 10 - - -
20/10:00am - - - - - S 11 19 6 10 - - -
20/09:30am - - - - - SSW 9 11 5 6 - - -
20/09:00am - - - - - S 6 11 3 6 - - -
20/08:30am - - - - - S 6 7 3 4 - - -
20/08:00am - - - - - SSW 7 9 4 5 - - -
20/07:30am - - - - - WSW 6 9 3 5 - - -
20/07:00am - - - - - WSW 9 15 5 8 - - -
20/06:30am - - - - - SW 11 13 6 7 - - -
20/06:00am - - - - - SW 13 15 7 8 - - -
20/05:30am - - - - - SW 13 17 7 9 - - -
20/05:00am - - - - - SW 13 15 7 8 - - -
20/04:30am - - - - - SW 9 13 5 7 - - -
20/04:00am - - - - - SSW 7 11 4 6 - - -

Other Formats:

Comma delimited format used in spreadsheet applications
http://www.bom.gov.au/fwo/IDQ60801/IDQ60801.94591.axf

JavaScript Object Notation format (JSON) in row-major order
http://www.bom.gov.au/fwo/IDQ60801/IDQ60801.94591.json